Time;durP1;ratioP1;P1;durP2;ratioP2;P2;SDS_P1;SDS_P2;PMS_P1;PMS_P2;Temp;Humidity;BMP_temperature;BMP_pressure;BME280_temperature;BME280_humidity;BME280_pressure;Samples;Min_cycle;Max_cycle;Signal;HPM_P1;HPM_P2
2022/01/18 00:00:57;;;;;;;51.83;6.72;;;;;;;;;;5133073;28;20063;-80
2022/01/18 00:03:23;;;;;;;49.25;6.63;;;;;;;;;;5098174;28;20092;-80
2022/01/18 00:05:50;;;;;;;47.20;6.18;;;;;;;;;;5133113;28;20072;-79
2022/01/18 00:08:17;;;;;;;56.90;7.03;;;;;;;;;;5132945;28;20098;-79
2022/01/18 00:10:44;;;;;;;51.80;7.07;;;;;;;;;;5135494;27;20047;-79
2022/01/18 00:18:22;;;;;;;55.70;6.72;;;;;;;;;;5136950;27;20043;-78
2022/01/18 00:23:19;;;;;;;67.87;7.50;;;;;;;;;;5137136;27;20093;-79
2022/01/18 00:25:53;;;;;;;60.70;7.10;;;;;;;;;;5137031;27;20062;-79
2022/01/18 00:28:19;;;;;;;50.95;6.60;;;;;;;;;;5136867;27;20043;-77
2022/01/18 00:36:02;;;;;;;62.33;8.07;;;;;;;;;;5136525;27;20054;-79
2022/01/18 00:38:44;;;;;;;64.10;7.95;;;;;;;;;;5118584;27;20051;-78
2022/01/18 00:41:10;;;;;;;52.03;6.93;;;;;;;;;;5136680;27;20046;-79
2022/01/18 00:43:37;;;;;;;63.20;7.65;;;;;;;;;;5136326;27;20040;-77
2022/01/18 00:46:03;;;;;;;54.80;8.10;;;;;;;;;;5136823;27;20049;-79
2022/01/18 00:48:34;;;;;;;50.72;6.68;;;;;;;;;;5136446;27;20102;-78
2022/01/18 00:51:01;;;;;;;60.25;7.85;;;;;;;;;;5136266;27;20039;-79
2022/01/18 00:53:31;;;;;;;58.67;7.30;;;;;;;;;;5117678;27;20071;-80
2022/01/18 00:56:17;;;;;;;53.42;8.90;;;;;;;;;;5117772;27;20046;-78
2022/01/18 00:58:44;;;;;;;54.45;7.10;;;;;;;;;;5136373;27;20059;-78
2022/01/18 01:01:11;;;;;;;51.67;7.18;;;;;;;;;;5117755;27;20056;-79
2022/01/18 01:03:38;;;;;;;56.50;7.60;;;;;;;;;;5117875;27;20492;-78
2022/01/18 01:06:05;;;;;;;56.85;7.47;;;;;;;;;;5117733;27;20134;-79
2022/01/18 01:08:34;;;;;;;56.72;7.00;;;;;;;;;;5136013;27;20434;-78
2022/01/18 01:11:00;;;;;;;52.72;7.95;;;;;;;;;;5100499;27;20372;-79
2022/01/18 01:13:29;;;;;;;61.55;8.48;;;;;;;;;;5117772;27;20480;-79
2022/01/18 01:32:21;;;;;;;47.58;7.47;;;;;;;;;;5135704;27;20133;-79
2022/01/18 01:45:11;;;;;;;54.95;6.47;;;;;;;;;;5116766;27;20489;-78
2022/01/18 01:47:38;;;;;;;52.72;6.28;;;;;;;;;;5117252;27;20057;-79
2022/01/18 01:50:05;;;;;;;41.22;6.68;;;;;;;;;;5117064;27;20043;-78
2022/01/18 01:52:31;;;;;;;50.63;6.30;;;;;;;;;;5134830;27;20039;-78
2022/01/18 01:54:58;;;;;;;53.13;6.78;;;;;;;;;;5116566;27;20533;-77
2022/01/18 01:57:24;;;;;;;44.38;5.93;;;;;;;;;;5135142;27;20083;-79
2022/01/18 01:59:50;;;;;;;51.50;6.80;;;;;;;;;;5116863;27;20050;-79
2022/01/18 02:02:16;;;;;;;55.47;6.60;;;;;;;;;;5116481;27;20422;-79
2022/01/18 02:04:43;;;;;;;51.72;6.75;;;;;;;;;;5134990;27;20055;-79
2022/01/18 02:07:09;;;;;;;58.05;8.32;;;;;;;;;;5134805;27;20046;-79
2022/01/18 02:09:35;;;;;;;56.67;6.82;;;;;;;;;;5116636;27;20365;-79
2022/01/18 02:12:01;;;;;;;52.13;6.57;;;;;;;;;;5135163;27;20043;-79
2022/01/18 02:14:30;;;;;;;56.08;6.53;;;;;;;;;;5116050;27;20043;-79
2022/01/18 02:22:25;;;;;;;54.53;8.07;;;;;;;;;;5134868;27;20043;-79
2022/01/18 02:24:52;;;;;;;56.05;7.75;;;;;;;;;;5134585;27;20046;-79
2022/01/18 02:27:18;;;;;;;52.50;7.20;;;;;;;;;;5134690;27;20122;-80
2022/01/18 02:29:44;;;;;;;54.97;7.72;;;;;;;;;;5134343;27;20125;-79
2022/01/18 02:32:11;;;;;;;52.80;7.63;;;;;;;;;;5134304;27;20042;-78
2022/01/18 02:34:38;;;;;;;54.13;7.75;;;;;;;;;;5115766;27;20142;-79
2022/01/18 02:37:04;;;;;;;47.65;7.63;;;;;;;;;;5134596;27;20046;-79
2022/01/18 02:39:31;;;;;;;45.38;9.20;;;;;;;;;;5134026;27;20472;-78
2022/01/18 02:42:04;;;;;;;56.17;8.60;;;;;;;;;;5134136;27;20121;-79
2022/01/18 02:44:31;;;;;;;52.63;9.43;;;;;;;;;;5115914;27;20043;-79
2022/01/18 02:46:58;;;;;;;57.63;8.73;;;;;;;;;;5116002;27;20039;-79
2022/01/18 02:49:24;;;;;;;52.78;8.13;;;;;;;;;;5134142;27;20062;-78
2022/01/18 02:51:50;;;;;;;53.50;8.05;;;;;;;;;;5115487;27;20043;-78
2022/01/18 02:54:17;;;;;;;45.28;7.18;;;;;;;;;;5133882;27;20503;-78
2022/01/18 02:56:51;;;;;;;39.30;8.05;;;;;;;;;;5133953;27;20043;-77
2022/01/18 02:59:29;;;;;;;42.92;7.47;;;;;;;;;;5134226;27;20124;-78
2022/01/18 03:04:40;;;;;;;48.45;7.97;;;;;;;;;;5133974;27;20043;-79
2022/01/18 03:07:07;;;;;;;54.85;9.82;;;;;;;;;;5133867;27;20043;-78
2022/01/18 03:09:33;;;;;;;55.67;9.55;;;;;;;;;;5115307;27;20357;-79
2022/01/18 03:12:00;;;;;;;56.22;10.45;;;;;;;;;;5133969;27;20042;-78
2022/01/18 03:14:26;;;;;;;47.35;8.05;;;;;;;;;;5115296;27;20050;-80
2022/01/18 03:16:52;;;;;;;41.65;6.88;;;;;;;;;;5098591;27;20047;-78
2022/01/18 03:19:18;;;;;;;42.38;7.93;;;;;;;;;;5133547;27;20373;-79
2022/01/18 03:21:44;;;;;;;51.42;7.35;;;;;;;;;;5133791;27;20557;-79
2022/01/18 03:24:43;;;;;;;54.70;8.95;;;;;;;;;;5133593;27;20045;-79
2022/01/18 03:29:50;;;;;;;74.47;14.60;;;;;;;;;;5133577;27;20403;-78
2022/01/18 03:32:17;;;;;;;52.33;8.73;;;;;;;;;;5133442;28;20045;-79
2022/01/18 03:34:43;;;;;;;54.33;8.00;;;;;;;;;;5114981;28;20053;-81
2022/01/18 03:37:09;;;;;;;60.60;9.13;;;;;;;;;;5133440;28;20458;-78
2022/01/18 03:39:35;;;;;;;44.45;8.27;;;;;;;;;;5133388;28;20081;-77
2022/01/18 03:42:33;;;;;;;64.15;9.88;;;;;;;;;;5133579;28;20118;-78
2022/01/18 03:44:50;;;;;;;47.50;8.82;;;;;;;;;;5133734;27;20492;-77
2022/01/18 03:47:17;;;;;;;57.08;8.73;;;;;;;;;;5137928;27;20091;-78
2022/01/18 03:49:43;;;;;;;57.92;8.70;;;;;;;;;;5137597;27;20039;-77
2022/01/18 03:52:09;;;;;;;48.20;10.02;;;;;;;;;;5137697;27;20407;-79
2022/01/18 03:54:42;;;;;;;59.33;10.50;;;;;;;;;;5137335;27;20615;-79
2022/01/18 03:57:08;;;;;;;48.78;9.07;;;;;;;;;;5119057;27;20384;-79
2022/01/18 03:59:35;;;;;;;57.28;9.70;;;;;;;;;;5119236;27;20101;-79
2022/01/18 04:02:01;;;;;;;40.90;8.40;;;;;;;;;;5137403;27;20043;-78
2022/01/18 04:04:28;;;;;;;40.47;8.10;;;;;;;;;;5137414;27;20400;-78
2022/01/18 04:06:54;;;;;;;44.45;7.47;;;;;;;;;;5137320;27;20490;-79
2022/01/18 04:09:20;;;;;;;47.90;7.80;;;;;;;;;;5118962;27;20047;-77
2022/01/18 04:11:46;;;;;;;51.00;7.38;;;;;;;;;;5137183;27;20085;-78
2022/01/18 04:14:13;;;;;;;44.95;6.70;;;;;;;;;;5101683;27;20130;-78
2022/01/18 04:16:57;;;;;;;42.05;6.93;;;;;;;;;;5137174;27;20039;-79
2022/01/18 04:27:45;;;;;;;35.38;5.80;;;;;;;;;;5136900;27;20046;-79
2022/01/18 04:30:12;;;;;;;35.30;5.47;;;;;;;;;;5118483;27;20071;-78
2022/01/18 04:32:38;;;;;;;32.20;4.97;;;;;;;;;;5136690;27;20417;-78
2022/01/18 04:35:04;;;;;;;37.25;4.60;;;;;;;;;;5118304;27;20518;-78
2022/01/18 04:37:30;;;;;;;38.65;4.65;;;;;;;;;;5136759;27;20388;-77
2022/01/18 04:39:58;;;;;;;40.80;4.78;;;;;;;;;;5136880;27;20544;-78
2022/01/18 04:48:28;;;;;;;40.33;4.45;;;;;;;;;;5117923;27;20043;-79
2022/01/18 04:50:55;;;;;;;31.80;3.92;;;;;;;;;;5136339;27;20481;-79
2022/01/18 04:53:23;;;;;;;29.88;3.85;;;;;;;;;;5136247;27;20064;-77
2022/01/18 04:55:55;;;;;;;27.48;4.32;;;;;;;;;;5135836;27;20107;-78
2022/01/18 04:58:22;;;;;;;27.48;4.43;;;;;;;;;;5136422;27;20054;-78
2022/01/18 05:00:50;;;;;;;27.55;4.55;;;;;;;;;;5136004;27;20050;-78
2022/01/18 05:03:16;;;;;;;37.08;5.22;;;;;;;;;;5136309;27;20043;-79
2022/01/18 05:05:42;;;;;;;30.40;4.35;;;;;;;;;;5136041;27;20047;-77
2022/01/18 05:08:13;;;;;;;34.13;4.97;;;;;;;;;;5117840;27;20084;-79
2022/01/18 05:10:40;;;;;;;26.13;4.72;;;;;;;;;;5136291;27;20430;-79
2022/01/18 05:16:19;;;;;;;30.27;5.18;;;;;;;;;;5111544;27;20043;-78
2022/01/18 05:23:59;;;;;;;28.35;4.80;;;;;;;;;;5135791;27;20043;-79
2022/01/18 05:26:26;;;;;;;27.13;4.63;;;;;;;;;;5117380;27;20054;-78
2022/01/18 05:28:52;;;;;;;24.77;4.97;;;;;;;;;;5117423;27;20039;-79
2022/01/18 05:31:19;;;;;;;39.80;5.97;;;;;;;;;;5135658;27;20123;-78
2022/01/18 05:33:47;;;;;;;29.30;5.68;;;;;;;;;;5135692;27;20038;-79
2022/01/18 05:36:13;;;;;;;32.33;5.88;;;;;;;;;;5135619;27;20085;-79
2022/01/18 05:38:40;;;;;;;31.38;5.32;;;;;;;;;;5117090;27;20043;-79
2022/01/18 05:41:08;;;;;;;27.88;5.22;;;;;;;;;;5117305;27;20121;-78
2022/01/18 05:43:34;;;;;;;35.72;5.78;;;;;;;;;;5135362;27;20043;-79
2022/01/18 05:46:00;;;;;;;30.70;4.90;;;;;;;;;;5116910;27;20043;-79
2022/01/18 05:48:26;;;;;;;31.10;4.93;;;;;;;;;;5135429;27;20043;-79
2022/01/18 05:50:54;;;;;;;21.38;4.28;;;;;;;;;;5135426;27;20449;-79
2022/01/18 05:53:21;;;;;;;31.33;5.38;;;;;;;;;;5099849;27;20088;-79
2022/01/18 05:55:47;;;;;;;29.55;5.13;;;;;;;;;;5135366;27;20126;-80
2022/01/18 05:58:13;;;;;;;23.33;4.70;;;;;;;;;;5116607;27;20126;-79
2022/01/18 06:00:41;;;;;;;28.25;4.60;;;;;;;;;;5116729;27;20123;-79
2022/01/18 06:03:15;;;;;;;30.70;5.50;;;;;;;;;;5134868;27;20035;-80
2022/01/18 06:08:27;;;;;;;27.98;6.57;;;;;;;;;;5134110;27;20057;-78
2022/01/18 06:10:53;;;;;;;36.15;4.72;;;;;;;;;;5134825;27;20039;-79
2022/01/18 06:13:19;;;;;;;24.83;4.00;;;;;;;;;;5134969;27;20085;-79
2022/01/18 06:15:45;;;;;;;28.45;4.10;;;;;;;;;;5134794;27;20095;-80
2022/01/18 06:18:12;;;;;;;25.48;4.00;;;;;;;;;;5134932;27;20047;-79
2022/01/18 06:20:40;;;;;;;24.80;4.32;;;;;;;;;;5099558;27;20043;-79
2022/01/18 06:23:06;;;;;;;32.30;4.32;;;;;;;;;;5116323;27;20057;-79
2022/01/18 06:25:32;;;;;;;25.52;4.00;;;;;;;;;;5116035;27;20054;-79
2022/01/18 06:27:58;;;;;;;33.78;4.43;;;;;;;;;;5116219;27;20039;-79
2022/01/18 06:30:25;;;;;;;28.42;4.47;;;;;;;;;;5134242;27;20050;-79
2022/01/18 06:32:51;;;;;;;25.88;4.45;;;;;;;;;;5134245;27;20075;-79
2022/01/18 06:35:17;;;;;;;20.40;4.00;;;;;;;;;;5116058;27;20039;-78
2022/01/18 06:37:43;;;;;;;35.83;4.88;;;;;;;;;;5134099;27;20053;-78
2022/01/18 06:40:11;;;;;;;21.58;4.97;;;;;;;;;;5116120;27;20086;-78
2022/01/18 06:42:37;;;;;;;26.15;4.10;;;;;;;;;;5134278;27;20039;-78
2022/01/18 06:45:04;;;;;;;23.30;5.10;;;;;;;;;;5116001;27;20089;-78
2022/01/18 06:47:30;;;;;;;27.42;4.72;;;;;;;;;;5134085;27;20122;-78
2022/01/18 06:49:56;;;;;;;24.05;3.88;;;;;;;;;;5134105;27;20043;-78
2022/01/18 06:52:22;;;;;;;24.48;3.95;;;;;;;;;;5115964;27;20047;-78
2022/01/18 06:54:48;;;;;;;26.45;4.82;;;;;;;;;;5115726;27;20047;-78
2022/01/18 06:57:14;;;;;;;26.83;4.57;;;;;;;;;;5134147;27;20039;-79
2022/01/18 06:59:41;;;;;;;28.35;5.25;;;;;;;;;;5134172;27;20047;-79
2022/01/18 07:02:07;;;;;;;23.55;4.55;;;;;;;;;;5133509;27;20055;-78
2022/01/18 07:04:33;;;;;;;27.40;4.53;;;;;;;;;;5133771;27;20101;-79
2022/01/18 07:07:00;;;;;;;24.23;4.95;;;;;;;;;;5133711;27;20043;-78
2022/01/18 07:09:27;;;;;;;23.23;5.10;;;;;;;;;;5134018;27;20045;-79
2022/01/18 07:11:57;;;;;;;24.77;4.70;;;;;;;;;;5133914;27;20173;-78
2022/01/18 07:14:23;;;;;;;20.40;4.07;;;;;;;;;;5133697;27;20388;-78
2022/01/18 07:16:50;;;;;;;23.38;4.55;;;;;;;;;;5115721;27;20043;-78
2022/01/18 07:19:16;;;;;;;21.75;4.35;;;;;;;;;;5098529;28;20130;-78
2022/01/18 07:21:42;;;;;;;20.38;4.30;;;;;;;;;;5133474;27;20135;-77
2022/01/18 07:24:35;;;;;;;28.20;4.85;;;;;;;;;;5133580;27;20071;-78
2022/01/18 07:27:01;;;;;;;26.08;4.47;;;;;;;;;;5115472;28;20371;-79
2022/01/18 07:29:27;;;;;;;24.15;4.43;;;;;;;;;;5119479;27;20114;-80
2022/01/18 07:31:53;;;;;;;20.90;4.40;;;;;;;;;;5133553;27;20127;-78
2022/01/18 07:34:20;;;;;;;25.45;4.50;;;;;;;;;;5114517;27;20082;-79
2022/01/18 07:36:46;;;;;;;21.67;4.43;;;;;;;;;;5132331;28;20047;-78
2022/01/18 07:39:12;;;;;;;24.17;4.18;;;;;;;;;;5113806;28;20118;-78
2022/01/18 07:41:38;;;;;;;20.60;4.53;;;;;;;;;;5133215;28;20043;-78
2022/01/18 07:44:05;;;;;;;19.55;4.55;;;;;;;;;;5114794;28;20100;-78
2022/01/18 07:46:31;;;;;;;18.63;4.32;;;;;;;;;;5133075;28;20079;-79
2022/01/18 07:48:57;;;;;;;24.35;4.95;;;;;;;;;;5114495;28;20388;-77
2022/01/18 07:51:23;;;;;;;26.30;5.65;;;;;;;;;;5133077;28;20504;-79
2022/01/18 07:53:49;;;;;;;24.48;5.10;;;;;;;;;;5115045;28;20039;-78
2022/01/18 07:56:16;;;;;;;22.17;5.20;;;;;;;;;;5115442;28;20118;-78
2022/01/18 07:58:42;;;;;;;26.80;9.68;;;;;;;;;;5133337;28;20134;-78
2022/01/18 08:01:08;;;;;;;32.85;12.23;;;;;;;;;;5132790;28;20437;-78
2022/01/18 08:03:34;;;;;;;30.05;10.25;;;;;;;;;;5133410;28;20070;-79
2022/01/18 08:06:01;;;;;;;28.45;10.98;;;;;;;;;;5133228;28;20051;-78
2022/01/18 08:08:27;;;;;;;32.88;10.95;;;;;;;;;;5133111;28;20039;-78
2022/01/18 08:10:54;;;;;;;34.55;12.07;;;;;;;;;;5133306;28;20122;-78
2022/01/18 08:13:26;;;;;;;35.42;10.52;;;;;;;;;;5115100;28;20464;-79
2022/01/18 08:16:10;;;;;;;26.23;7.35;;;;;;;;;;5114969;28;20079;-78
2022/01/18 08:18:37;;;;;;;20.40;5.35;;;;;;;;;;5133234;28;20499;-79
2022/01/18 08:21:04;;;;;;;17.70;4.20;;;;;;;;;;5114830;28;20130;-79
2022/01/18 08:23:30;;;;;;;21.67;5.60;;;;;;;;;;5114666;28;20452;-79
2022/01/18 08:25:56;;;;;;;23.20;5.07;;;;;;;;;;5114922;28;20035;-79
2022/01/18 08:28:22;;;;;;;17.98;5.18;;;;;;;;;;5132965;28;20042;-79
2022/01/18 08:30:48;;;;;;;21.70;4.53;;;;;;;;;;5133813;27;20035;-80
2022/01/18 08:33:14;;;;;;;18.80;3.72;;;;;;;;;;5136745;27;20035;-79
2022/01/18 08:35:40;;;;;;;20.90;3.83;;;;;;;;;;5136719;27;20536;-79
2022/01/18 08:38:07;;;;;;;19.35;3.22;;;;;;;;;;5117012;27;20093;-78
2022/01/18 08:40:33;;;;;;;17.95;3.97;;;;;;;;;;5115912;28;20048;-81
2022/01/18 08:42:59;;;;;;;18.80;4.35;;;;;;;;;;5115766;28;20515;-80
2022/01/18 08:45:25;;;;;;;15.43;3.53;;;;;;;;;;5116123;28;20049;-81
2022/01/18 08:47:51;;;;;;;19.55;3.83;;;;;;;;;;5116113;28;20039;-80
2022/01/18 08:50:19;;;;;;;20.52;3.78;;;;;;;;;;5115567;28;20036;-80
2022/01/18 08:52:48;;;;;;;16.05;4.18;;;;;;;;;;5097484;28;20423;-80
2022/01/18 08:55:14;;;;;;;20.27;4.00;;;;;;;;;;5115490;28;20039;-80
2022/01/18 08:57:40;;;;;;;26.52;4.90;;;;;;;;;;5115951;28;20042;-80
2022/01/18 09:00:09;;;;;;;20.88;3.67;;;;;;;;;;5115672;28;20122;-80
2022/01/18 09:02:35;;;;;;;22.30;4.05;;;;;;;;;;5115352;28;20047;-81
2022/01/18 09:05:01;;;;;;;18.77;3.33;;;;;;;;;;5115478;28;20058;-79
2022/01/18 09:07:27;;;;;;;18.33;3.80;;;;;;;;;;5115510;28;20121;-80
2022/01/18 09:10:02;;;;;;;21.58;4.47;;;;;;;;;;5097510;28;20062;-80
2022/01/18 09:12:29;;;;;;;15.90;4.13;;;;;;;;;;5097177;28;20460;-81
2022/01/18 09:14:55;;;;;;;13.95;3.30;;;;;;;;;;5097431;28;20126;-81
2022/01/18 09:17:21;;;;;;;20.65;3.53;;;;;;;;;;5097214;28;20476;-80
2022/01/18 09:19:47;;;;;;;17.40;3.78;;;;;;;;;;5097254;28;20055;-80
2022/01/18 09:22:13;;;;;;;15.40;3.33;;;;;;;;;;5115855;28;20483;-80
2022/01/18 09:24:39;;;;;;;20.85;3.63;;;;;;;;;;5115328;28;20043;-80
2022/01/18 09:27:05;;;;;;;19.73;4.22;;;;;;;;;;5115492;28;20047;-81
2022/01/18 09:29:33;;;;;;;16.90;4.07;;;;;;;;;;5115348;28;20503;-81
2022/01/18 09:31:59;;;;;;;20.73;4.50;;;;;;;;;;5097153;28;20043;-76
2022/01/18 09:34:26;;;;;;;19.33;4.47;;;;;;;;;;5096962;28;20614;-79
2022/01/18 09:36:52;;;;;;;25.67;5.03;;;;;;;;;;5115050;28;20051;-80
2022/01/18 09:39:18;;;;;;;16.20;4.35;;;;;;;;;;5096874;28;20051;-81
2022/01/18 09:41:51;;;;;;;22.10;5.10;;;;;;;;;;5096632;28;20047;-81
2022/01/18 09:44:18;;;;;;;19.35;4.90;;;;;;;;;;5114200;28;20043;-81
2022/01/18 09:46:44;;;;;;;19.33;5.15;;;;;;;;;;5114591;28;20058;-82
2022/01/18 09:49:12;;;;;;;22.15;5.97;;;;;;;;;;5096736;28;20039;-82
2022/01/18 09:51:38;;;;;;;22.83;5.47;;;;;;;;;;5114454;28;20048;-81
2022/01/18 09:54:05;;;;;;;19.52;5.63;;;;;;;;;;5114859;28;20043;-81
2022/01/18 09:56:31;;;;;;;18.15;5.20;;;;;;;;;;5114674;28;20035;-81
2022/01/18 09:58:57;;;;;;;19.55;5.88;;;;;;;;;;5096750;28;20071;-81
2022/01/18 10:01:25;;;;;;;25.00;6.35;;;;;;;;;;5114539;28;20420;-81
2022/01/18 10:03:51;;;;;;;22.98;6.75;;;;;;;;;;5114484;28;20054;-80
2022/01/18 10:06:20;;;;;;;26.45;6.78;;;;;;;;;;5096366;28;20138;-81
2022/01/18 10:08:49;;;;;;;21.55;6.70;;;;;;;;;;5114586;28;20043;-81
2022/01/18 10:11:17;;;;;;;20.40;7.25;;;;;;;;;;5096487;28;20381;-81
2022/01/18 10:13:49;;;;;;;22.85;7.25;;;;;;;;;;5114379;28;20443;-81
2022/01/18 10:16:20;;;;;;;23.98;6.88;;;;;;;;;;5114374;28;20043;-80
2022/01/18 10:18:50;;;;;;;23.45;7.50;;;;;;;;;;5114061;28;20079;-80
2022/01/18 10:21:35;;;;;;;16.47;7.20;;;;;;;;;;5096392;28;20035;-81
2022/01/18 10:24:10;;;;;;;22.08;7.32;;;;;;;;;;5113997;28;20830;-80
2022/01/18 10:26:39;;;;;;;26.15;8.10;;;;;;;;;;5113932;28;20380;-80
2022/01/18 10:29:06;;;;;;;20.25;8.50;;;;;;;;;;5113842;28;20075;-81
2022/01/18 10:31:37;;;;;;;27.52;13.65;;;;;;;;;;5095913;28;20043;-81
2022/01/18 10:37:14;;;;;;;29.27;12.65;;;;;;;;;;5097589;28;20088;-80
2022/01/18 10:39:41;;;;;;;26.83;13.80;;;;;;;;;;5114194;28;20397;-81
2022/01/18 10:42:13;;;;;;;26.88;15.45;;;;;;;;;;5113891;28;20044;-81
2022/01/18 10:44:40;;;;;;;28.65;19.13;;;;;;;;;;5113664;28;20039;-82
2022/01/18 10:47:06;;;;;;;26.05;10.07;;;;;;;;;;5095739;28;20055;-82
2022/01/18 10:49:37;;;;;;;22.08;8.65;;;;;;;;;;5113597;28;20043;-81
2022/01/18 10:52:07;;;;;;;20.27;8.05;;;;;;;;;;5113682;28;20122;-81
2022/01/18 10:54:40;;;;;;;20.00;7.93;;;;;;;;;;5113046;28;20044;-81
2022/01/18 10:57:07;;;;;;;19.95;6.80;;;;;;;;;;5113582;28;20071;-81
2022/01/18 10:59:34;;;;;;;21.75;6.97;;;;;;;;;;5113577;28;20422;-81
2022/01/18 11:02:05;;;;;;;18.50;8.20;;;;;;;;;;5094123;28;20488;-82
2022/01/18 11:04:31;;;;;;;16.55;7.93;;;;;;;;;;5094337;28;20100;-81
2022/01/18 11:06:59;;;;;;;16.55;7.05;;;;;;;;;;5094340;28;20073;-80
2022/01/18 11:09:25;;;;;;;20.08;8.32;;;;;;;;;;5112379;28;20376;-82
2022/01/18 11:11:51;;;;;;;22.52;7.82;;;;;;;;;;5094293;28;20468;-81
2022/01/18 11:14:20;;;;;;;15.15;7.57;;;;;;;;;;5094239;28;20059;-81
2022/01/18 11:16:47;;;;;;;18.45;7.30;;;;;;;;;;5112283;28;20542;-80
2022/01/18 11:19:30;;;;;;;19.42;7.55;;;;;;;;;;5094029;28;20047;-81
2022/01/18 11:21:58;;;;;;;16.17;6.78;;;;;;;;;;5112283;28;20058;-81
2022/01/18 11:24:24;;;;;;;16.17;5.70;;;;;;;;;;5077549;28;20095;-81
2022/01/18 11:26:51;;;;;;;21.20;5.18;;;;;;;;;;5112381;28;20054;-81
2022/01/18 11:29:18;;;;;;;14.85;4.28;;;;;;;;;;5094082;28;20050;-81
2022/01/18 11:31:48;;;;;;;16.63;4.20;;;;;;;;;;5112082;28;20403;-80
2022/01/18 11:34:17;;;;;;;12.10;3.50;;;;;;;;;;5094115;28;20127;-81
2022/01/18 11:36:47;;;;;;;13.50;3.35;;;;;;;;;;5112160;28;20552;-81
2022/01/18 11:39:17;;;;;;;15.13;4.72;;;;;;;;;;5111879;28;20523;-80
2022/01/18 11:41:43;;;;;;;13.90;4.05;;;;;;;;;;5093882;28;20075;-81
2022/01/18 11:44:16;;;;;;;15.73;4.00;;;;;;;;;;5112079;28;20122;-81
2022/01/18 11:46:47;;;;;;;14.85;4.05;;;;;;;;;;5112092;28;20069;-81
2022/01/18 11:49:21;;;;;;;12.68;4.25;;;;;;;;;;5112180;28;20043;-81
2022/01/18 11:51:57;;;;;;;18.60;4.38;;;;;;;;;;5128090;27;20047;-81
2022/01/18 11:54:56;;;;;;;14.13;4.03;;;;;;;;;;5132120;28;20134;-81
2022/01/18 11:57:20;;;;;;;13.52;4.05;;;;;;;;;;5131175;28;20047;-82
2022/01/18 11:59:46;;;;;;;16.33;4.20;;;;;;;;;;5132259;28;20468;-81
2022/01/18 12:02:25;;;;;;;15.63;3.80;;;;;;;;;;5073584;28;1158289;-81
2022/01/18 12:04:54;;;;;;;12.05;3.72;;;;;;;;;;5133153;27;20381;-82
2022/01/18 12:07:36;;;;;;;16.00;4.22;;;;;;;;;;5136446;27;20043;-81
2022/01/18 12:10:21;;;;;;;15.02;4.10;;;;;;;;;;5137316;27;20129;-81
2022/01/18 12:12:48;;;;;;;12.10;3.92;;;;;;;;;;5137209;27;20488;-82
2022/01/18 12:15:18;;;;;;;14.10;4.35;;;;;;;;;;5118892;27;20421;-81
2022/01/18 12:17:54;;;;;;;16.02;3.88;;;;;;;;;;5137026;27;20104;-81
2022/01/18 12:20:35;;;;;;;14.30;3.47;;;;;;;;;;5137102;27;20039;-81
2022/01/18 12:23:09;;;;;;;14.98;4.80;;;;;;;;;;5137016;27;20388;-81
2022/01/18 12:25:37;;;;;;;16.08;4.93;;;;;;;;;;5136829;27;20046;-81
2022/01/18 12:28:32;;;;;;;16.13;5.60;;;;;;;;;;5137216;27;20046;-81
2022/01/18 12:31:06;;;;;;;18.10;5.40;;;;;;;;;;5099845;27;20457;-81
2022/01/18 12:33:45;;;;;;;20.83;5.05;;;;;;;;;;5136828;27;20043;-81
2022/01/18 12:36:31;;;;;;;14.93;4.43;;;;;;;;;;5136625;27;20047;-81
2022/01/18 12:38:58;;;;;;;15.32;4.90;;;;;;;;;;5118490;27;20147;-81
2022/01/18 12:41:51;;;;;;;17.10;4.63;;;;;;;;;;5118632;27;20047;-81
2022/01/18 12:44:20;;;;;;;18.95;5.68;;;;;;;;;;5136555;27;20043;-81
2022/01/18 12:46:56;;;;;;;18.58;5.13;;;;;;;;;;5136573;27;20049;-81
2022/01/18 12:49:23;;;;;;;16.08;5.50;;;;;;;;;;5118526;27;20047;-81
2022/01/18 12:51:56;;;;;;;19.92;6.20;;;;;;;;;;5118354;27;20483;-81
2022/01/18 12:54:38;;;;;;;15.52;5.63;;;;;;;;;;5136503;27;20120;-81
2022/01/18 12:57:21;;;;;;;14.27;5.40;;;;;;;;;;5134580;27;20035;-78
2022/01/18 12:59:59;;;;;;;16.58;4.80;;;;;;;;;;5136360;27;20054;-79
2022/01/18 13:02:26;;;;;;;15.43;4.43;;;;;;;;;;5114018;28;20050;-79
2022/01/18 13:05:03;;;;;;;19.90;4.55;;;;;;;;;;5114670;28;20056;-77
2022/01/18 13:07:29;;;;;;;15.50;4.20;;;;;;;;;;5115431;28;20044;-77
2022/01/18 13:09:59;;;;;;;12.85;4.05;;;;;;;;;;5115734;28;20087;-76
2022/01/18 13:12:32;;;;;;;13.60;4.00;;;;;;;;;;5115583;28;20130;-77
2022/01/18 13:15:00;;;;;;;16.52;4.38;;;;;;;;;;5114050;28;20050;-72
2022/01/18 13:23:34;;;;;;;13.48;3.90;;;;;;;;;;5115113;28;20101;-78
2022/01/18 13:26:02;;;;;;;15.02;4.30;;;;;;;;;;5115206;28;20047;-76
2022/01/18 13:28:35;;;;;;;17.67;4.60;;;;;;;;;;5113972;28;20373;-80
2022/01/18 13:31:14;;;;;;;17.38;4.50;;;;;;;;;;5115098;28;20043;-80
2022/01/18 13:33:55;;;;;;;17.20;5.78;;;;;;;;;;5097235;28;20126;-80
2022/01/18 13:36:22;;;;;;;16.95;4.10;;;;;;;;;;5113855;28;20039;-80
2022/01/18 13:38:51;;;;;;;15.52;3.75;;;;;;;;;;5114926;28;20090;-80
2022/01/18 13:41:18;;;;;;;17.08;4.20;;;;;;;;;;5114856;28;20043;-80
2022/01/18 13:43:46;;;;;;;15.68;4.25;;;;;;;;;;5114814;28;20043;-82
2022/01/18 13:46:12;;;;;;;14.63;3.78;;;;;;;;;;5113958;28;20040;-80
2022/01/18 13:48:38;;;;;;;13.35;3.45;;;;;;;;;;5113856;28;20040;-80
2022/01/18 13:51:15;;;;;;;16.02;3.80;;;;;;;;;;5114439;28;20535;-80
2022/01/18 13:53:42;;;;;;;15.10;3.88;;;;;;;;;;5099767;27;20043;-80
2022/01/18 13:56:11;;;;;;;13.55;3.78;;;;;;;;;;5117209;27;20043;-80
2022/01/18 13:58:39;;;;;;;14.38;3.92;;;;;;;;;;5135217;27;20067;-80
2022/01/18 14:01:20;;;;;;;16.35;5.00;;;;;;;;;;5134931;27;20384;-80
2022/01/18 14:04:06;;;;;;;13.23;3.63;;;;;;;;;;5134848;27;20043;-80
2022/01/18 14:06:35;;;;;;;13.85;3.47;;;;;;;;;;5117126;27;20094;-80
2022/01/18 14:09:01;;;;;;;13.15;3.47;;;;;;;;;;5116838;27;20039;-80
2022/01/18 14:11:34;;;;;;;13.40;2.85;;;;;;;;;;5134892;27;20472;-81
2022/01/18 14:14:02;;;;;;;14.27;3.72;;;;;;;;;;5134645;27;20495;-79
2022/01/18 14:16:28;;;;;;;16.40;4.63;;;;;;;;;;5134685;27;20051;-79
2022/01/18 14:18:54;;;;;;;16.50;4.40;;;;;;;;;;5134659;27;20035;-80
2022/01/18 14:21:27;;;;;;;17.48;4.38;;;;;;;;;;5134615;27;20051;-80
2022/01/18 14:24:06;;;;;;;16.08;4.22;;;;;;;;;;5099543;27;20065;-79
2022/01/18 14:26:32;;;;;;;14.48;3.88;;;;;;;;;;5134578;27;20117;-79
2022/01/18 14:29:01;;;;;;;16.05;3.88;;;;;;;;;;5115946;27;20046;-80
2022/01/18 14:31:27;;;;;;;19.42;4.43;;;;;;;;;;5134728;27;20125;-80
2022/01/18 14:33:53;;;;;;;16.13;4.68;;;;;;;;;;5134322;27;20133;-80
2022/01/18 14:36:20;;;;;;;16.63;4.40;;;;;;;;;;5116169;27;20050;-79
2022/01/18 14:38:46;;;;;;;16.13;4.97;;;;;;;;;;5134291;27;20139;-80
2022/01/18 14:41:19;;;;;;;18.27;4.60;;;;;;;;;;5134110;27;20039;-81
2022/01/18 14:43:45;;;;;;;18.15;5.45;;;;;;;;;;5116203;27;20038;-81
2022/01/18 14:46:37;;;;;;;17.50;5.18;;;;;;;;;;5115962;27;20043;-79
2022/01/18 14:49:03;;;;;;;;;;;;;;;;;;5134867;27;20038;-81
2022/01/18 14:51:29;;;;;;;17.05;5.18;;;;;;;;;;5133966;27;19916;-79
2022/01/18 14:53:55;;;;;;;22.50;5.65;;;;;;;;;;5134508;27;20126;-79
2022/01/18 14:56:21;;;;;;;14.30;5.53;;;;;;;;;;5116085;27;20429;-79
2022/01/18 14:58:47;;;;;;;19.85;5.07;;;;;;;;;;5115552;27;20082;-80
2022/01/18 15:01:14;;;;;;;17.30;5.38;;;;;;;;;;5133786;27;20395;-81
2022/01/18 15:03:40;;;;;;;18.42;5.50;;;;;;;;;;5133809;27;20134;-81
2022/01/18 15:06:06;;;;;;;16.38;5.60;;;;;;;;;;5115373;27;20039;-79
2022/01/18 15:08:32;;;;;;;20.23;6.22;;;;;;;;;;5115719;27;20067;-79
2022/01/18 15:10:58;;;;;;;16.73;6.63;;;;;;;;;;5133873;27;20039;-80
2022/01/18 15:13:25;;;;;;;23.48;7.90;;;;;;;;;;5133673;27;20039;-80
2022/01/18 15:15:52;;;;;;;24.52;8.40;;;;;;;;;;5115721;27;20068;-80
2022/01/18 15:18:18;;;;;;;24.40;8.57;;;;;;;;;;5133871;27;20065;-81
2022/01/18 15:20:44;;;;;;;22.55;7.53;;;;;;;;;;5115203;27;20039;-80
2022/01/18 15:23:10;;;;;;;18.80;7.07;;;;;;;;;;5133866;27;20157;-79
2022/01/18 15:25:36;;;;;;;19.90;6.97;;;;;;;;;;5133765;27;20084;-80
2022/01/18 15:28:02;;;;;;;18.98;6.43;;;;;;;;;;5115415;27;20066;-79
2022/01/18 15:30:31;;;;;;;20.38;6.93;;;;;;;;;;5133677;27;20146;-79
2022/01/18 15:32:58;;;;;;;19.87;7.27;;;;;;;;;;5115384;27;20093;-79
2022/01/18 15:35:24;;;;;;;21.35;7.45;;;;;;;;;;5133222;27;20145;-80
2022/01/18 15:37:51;;;;;;;22.58;7.57;;;;;;;;;;5133314;27;20126;-79
2022/01/18 15:40:17;;;;;;;25.98;9.30;;;;;;;;;;5132785;27;20095;-79
2022/01/18 15:42:43;;;;;;;21.25;7.97;;;;;;;;;;5115257;28;20039;-80
2022/01/18 15:45:10;;;;;;;21.70;7.80;;;;;;;;;;5133466;27;20495;-80
2022/01/18 15:47:36;;;;;;;26.63;8.55;;;;;;;;;;5133319;27;20039;-80
2022/01/18 15:50:04;;;;;;;21.95;7.95;;;;;;;;;;5097942;28;20126;-80
2022/01/18 15:52:30;;;;;;;21.92;7.97;;;;;;;;;;5133122;27;20430;-80
2022/01/18 15:54:56;;;;;;;28.77;8.35;;;;;;;;;;5133153;27;20127;-81
2022/01/18 15:57:22;;;;;;;23.27;8.40;;;;;;;;;;5114950;28;20076;-81
2022/01/18 15:59:49;;;;;;;24.08;7.97;;;;;;;;;;5133121;27;20039;-80
2022/01/18 16:02:16;;;;;;;23.70;8.38;;;;;;;;;;5114469;28;20047;-79